sensor_id;sensor_type;location;lat;lon;timestamp;pressure;altitude;pressure_sealevel;temperature;humidity
45357;BME280;31092;51.924;21.448;2022-09-09T00:01:09;99985.34;;;10.54;100.00
45357;BME280;31092;51.924;21.448;2022-09-09T00:03:53;100057.31;;;10.93;100.00
45357;BME280;31092;51.924;21.448;2022-09-09T00:06:29;100059.31;;;10.99;100.00
45357;BME280;31092;51.924;21.448;2022-09-09T00:09:04;100059.47;;;10.98;100.00
45357;BME280;31092;51.924;21.448;2022-09-09T00:11:40;99959.09;;;10.40;100.00
45357;BME280;31092;51.924;21.448;2022-09-09T00:14:14;100055.25;;;10.95;100.00
45357;BME280;31092;51.924;21.448;2022-09-09T00:16:47;99988.34;;;10.60;100.00
45357;BME280;31092;51.924;21.448;2022-09-09T00:19:33;100038.09;;;10.88;100.00
45357;BME280;31092;51.924;21.448;2022-09-09T00:22:16;100011.38;;;10.78;100.00
45357;BME280;31092;51.924;21.448;2022-09-09T00:27:17;99943.81;;;10.33;100.00
45357;BME280;31092;51.924;21.448;2022-09-09T00:29:50;100027.00;;;10.83;100.00
45357;BME280;31092;51.924;21.448;2022-09-09T00:32:20;99967.69;;;10.44;100.00
45357;BME280;31092;51.924;21.448;2022-09-09T00:37:44;99932.72;;;10.36;100.00
45357;BME280;31092;51.924;21.448;2022-09-09T00:40:34;99929.34;;;10.34;100.00
45357;BME280;31092;51.924;21.448;2022-09-09T00:43:14;100026.47;;;10.88;100.00
45357;BME280;31092;51.924;21.448;2022-09-09T00:48:56;100030.88;;;10.89;100.00
45357;BME280;31092;51.924;21.448;2022-09-09T00:56:52;100007.34;;;10.74;100.00
45357;BME280;31092;51.924;21.448;2022-09-09T00:59:44;100011.38;;;10.78;100.00
45357;BME280;31092;51.924;21.448;2022-09-09T01:02:36;100018.75;;;10.85;100.00
45357;BME280;31092;51.924;21.448;2022-09-09T01:05:13;99893.22;;;10.03;100.00
45357;BME280;31092;51.924;21.448;2022-09-09T01:07:44;99948.50;;;10.39;100.00
45357;BME280;31092;51.924;21.448;2022-09-09T01:10:49;100037.59;;;10.93;100.00
45357;BME280;31092;51.924;21.448;2022-09-09T01:13:22;99967.16;;;10.57;100.00
45357;BME280;31092;51.924;21.448;2022-09-09T01:15:49;99962.63;;;10.49;100.00
45357;BME280;31092;51.924;21.448;2022-09-09T01:18:21;99999.09;;;10.68;100.00
45357;BME280;31092;51.924;21.448;2022-09-09T01:26:15;99985.44;;;10.77;100.00
45357;BME280;31092;51.924;21.448;2022-09-09T01:28:47;99924.13;;;10.40;100.00
45357;BME280;31092;51.924;21.448;2022-09-09T01:31:20;99930.50;;;10.47;100.00
45357;BME280;31092;51.924;21.448;2022-09-09T01:33:47;99931.16;;;10.49;100.00
45357;BME280;31092;51.924;21.448;2022-09-09T01:36:29;100006.94;;;10.94;100.00
45357;BME280;31092;51.924;21.448;2022-09-09T01:38:57;100014.19;;;10.93;100.00
45357;BME280;31092;51.924;21.448;2022-09-09T01:41:22;99948.31;;;10.57;100.00
45357;BME280;31092;51.924;21.448;2022-09-09T01:43:48;100025.13;;;11.00;100.00
45357;BME280;31092;51.924;21.448;2022-09-09T01:46:14;99941.06;;;10.49;100.00
45357;BME280;31092;51.924;21.448;2022-09-09T01:48:41;99972.00;;;10.69;100.00
45357;BME280;31092;51.924;21.448;2022-09-09T01:51:09;100027.13;;;10.98;100.00
45357;BME280;31092;51.924;21.448;2022-09-09T01:53:35;99948.47;;;10.55;100.00
45357;BME280;31092;51.924;21.448;2022-09-09T01:56:07;100020.22;;;11.03;100.00
45357;BME280;31092;51.924;21.448;2022-09-09T02:03:35;99967.63;;;10.68;100.00
45357;BME280;31092;51.924;21.448;2022-09-09T02:06:25;100024.28;;;10.99;100.00
45357;BME280;31092;51.924;21.448;2022-09-09T02:08:55;100027.63;;;11.01;100.00
45357;BME280;31092;51.924;21.448;2022-09-09T02:11:23;99952.69;;;10.58;100.00
45357;BME280;31092;51.924;21.448;2022-09-09T02:13:57;100008.44;;;10.96;100.00
45357;BME280;31092;51.924;21.448;2022-09-09T02:16:28;99995.47;;;10.92;100.00
45357;BME280;31092;51.924;21.448;2022-09-09T02:19:12;100024.06;;;11.09;100.00
45357;BME280;31092;51.924;21.448;2022-09-09T02:21:43;100012.28;;;11.02;100.00
45357;BME280;31092;51.924;21.448;2022-09-09T02:24:12;100017.81;;;11.09;100.00
45357;BME280;31092;51.924;21.448;2022-09-09T02:26:41;99987.53;;;10.98;100.00
45357;BME280;31092;51.924;21.448;2022-09-09T02:29:12;99998.31;;;11.07;100.00
45357;BME280;31092;51.924;21.448;2022-09-09T02:31:39;99909.25;;;10.52;100.00
45357;BME280;31092;51.924;21.448;2022-09-09T02:34:09;99948.25;;;10.73;100.00
45357;BME280;31092;51.924;21.448;2022-09-09T02:36:37;99965.03;;;10.83;100.00
45357;BME280;31092;51.924;21.448;2022-09-09T02:39:05;100001.84;;;11.07;100.00
45357;BME280;31092;51.924;21.448;2022-09-09T02:41:34;99994.63;;;10.99;100.00
45357;BME280;31092;51.924;21.448;2022-09-09T02:44:01;100006.56;;;11.05;100.00
45357;BME280;31092;51.924;21.448;2022-09-09T02:49:00;100004.34;;;11.09;100.00
45357;BME280;31092;51.924;21.448;2022-09-09T02:56:47;99921.34;;;10.65;100.00
45357;BME280;31092;51.924;21.448;2022-09-09T02:59:16;99928.91;;;10.69;100.00
45357;BME280;31092;51.924;21.448;2022-09-09T03:01:43;100001.31;;;11.12;100.00
45357;BME280;31092;51.924;21.448;2022-09-09T03:04:09;99952.09;;;10.78;100.00
45357;BME280;31092;51.924;21.448;2022-09-09T03:06:35;100010.56;;;11.17;100.00
45357;BME280;31092;51.924;21.448;2022-09-09T03:09:00;100004.69;;;11.14;100.00
45357;BME280;31092;51.924;21.448;2022-09-09T03:11:27;99997.25;;;11.16;100.00
45357;BME280;31092;51.924;21.448;2022-09-09T03:13:53;99993.03;;;11.13;100.00
45357;BME280;31092;51.924;21.448;2022-09-09T03:16:22;100007.81;;;11.25;100.00
45357;BME280;31092;51.924;21.448;2022-09-09T03:18:47;99963.47;;;10.97;100.00
45357;BME280;31092;51.924;21.448;2022-09-09T03:21:13;99995.56;;;11.15;100.00
45357;BME280;31092;51.924;21.448;2022-09-09T03:23:38;99995.06;;;11.11;100.00
45357;BME280;31092;51.924;21.448;2022-09-09T03:26:04;99916.94;;;10.72;100.00
45357;BME280;31092;51.924;21.448;2022-09-09T03:28:29;100012.03;;;11.28;100.00
45357;BME280;31092;51.924;21.448;2022-09-09T03:31:03;99921.97;;;10.75;100.00
45357;BME280;31092;51.924;21.448;2022-09-09T03:33:29;99984.47;;;11.10;100.00
45357;BME280;31092;51.924;21.448;2022-09-09T03:35:56;99918.44;;;10.74;100.00
45357;BME280;31092;51.924;21.448;2022-09-09T03:38:24;99997.72;;;11.19;100.00
45357;BME280;31092;51.924;21.448;2022-09-09T03:40:52;100012.03;;;11.28;100.00
45357;BME280;31092;51.924;21.448;2022-09-09T03:43:21;99999.88;;;11.24;100.00
45357;BME280;31092;51.924;21.448;2022-09-09T03:45:47;99881.19;;;10.47;100.00
45357;BME280;31092;51.924;21.448;2022-09-09T03:48:13;100008.13;;;11.31;100.00
45357;BME280;31092;51.924;21.448;2022-09-09T03:50:44;99993.84;;;11.22;100.00
45357;BME280;31092;51.924;21.448;2022-09-09T03:53:10;99924.81;;;10.82;100.00
45357;BME280;31092;51.924;21.448;2022-09-09T03:55:36;99932.53;;;10.85;100.00
45357;BME280;31092;51.924;21.448;2022-09-09T03:58:01;100010.31;;;11.27;100.00
45357;BME280;31092;51.924;21.448;2022-09-09T04:00:27;99952.50;;;10.98;100.00
45357;BME280;31092;51.924;21.448;2022-09-09T04:02:52;99992.19;;;11.21;100.00
45357;BME280;31092;51.924;21.448;2022-09-09T04:05:19;99928.66;;;10.87;100.00
45357;BME280;31092;51.924;21.448;2022-09-09T04:07:45;99988.75;;;11.27;100.00
45357;BME280;31092;51.924;21.448;2022-09-09T04:10:10;100000.00;;;11.39;100.00
45357;BME280;31092;51.924;21.448;2022-09-09T04:12:36;99986.38;;;11.32;100.00
45357;BME280;31092;51.924;21.448;2022-09-09T04:15:02;100002.50;;;11.40;100.00
45357;BME280;31092;51.924;21.448;2022-09-09T04:17:27;99999.53;;;11.35;100.00
45357;BME280;31092;51.924;21.448;2022-09-09T04:19:53;99942.22;;;11.02;100.00
45357;BME280;31092;51.924;21.448;2022-09-09T04:22:18;99979.53;;;11.21;100.00
45357;BME280;31092;51.924;21.448;2022-09-09T04:24:44;100019.84;;;11.46;100.00
45357;BME280;31092;51.924;21.448;2022-09-09T04:27:09;99947.44;;;11.03;100.00
45357;BME280;31092;51.924;21.448;2022-09-09T04:29:35;100025.06;;;11.47;100.00
45357;BME280;31092;51.924;21.448;2022-09-09T04:32:00;99937.66;;;11.02;100.00
45357;BME280;31092;51.924;21.448;2022-09-09T04:34:26;99960.53;;;11.15;100.00
45357;BME280;31092;51.924;21.448;2022-09-09T04:36:52;100018.97;;;11.54;100.00
45357;BME280;31092;51.924;21.448;2022-09-09T04:39:17;99941.72;;;11.07;100.00
45357;BME280;31092;51.924;21.448;2022-09-09T04:41:43;99932.75;;;11.06;100.00
45357;BME280;31092;51.924;21.448;2022-09-09T04:44:08;99948.91;;;11.14;100.00
45357;BME280;31092;51.924;21.448;2022-09-09T04:46:35;99949.56;;;11.16;100.00
45357;BME280;31092;51.924;21.448;2022-09-09T04:49:00;99938.28;;;11.13;100.00
45357;BME280;31092;51.924;21.448;2022-09-09T04:51:26;99954.94;;;11.24;100.00
45357;BME280;31092;51.924;21.448;2022-09-09T04:53:52;99949.03;;;11.21;100.00
45357;BME280;31092;51.924;21.448;2022-09-09T04:56:19;100033.38;;;11.69;100.00
45357;BME280;31092;51.924;21.448;2022-09-09T04:58:45;99939.59;;;11.17;100.00
45357;BME280;31092;51.924;21.448;2022-09-09T05:01:11;100024.72;;;11.73;100.00
45357;BME280;31092;51.924;21.448;2022-09-09T05:03:37;99997.19;;;11.55;100.00
45357;BME280;31092;51.924;21.448;2022-09-09T05:06:22;100034.16;;;11.78;100.00
45357;BME280;31092;51.924;21.448;2022-09-09T05:08:47;99950.66;;;11.30;100.00
45357;BME280;31092;51.924;21.448;2022-09-09T05:11:22;99957.72;;;11.31;100.00
45357;BME280;31092;51.924;21.448;2022-09-09T05:13:52;100041.03;;;11.80;100.00
45357;BME280;31092;51.924;21.448;2022-09-09T05:16:18;100036.53;;;11.72;100.00
45357;BME280;31092;51.924;21.448;2022-09-09T05:18:44;99968.47;;;11.39;100.00
45357;BME280;31092;51.924;21.448;2022-09-09T05:21:12;99968.00;;;11.36;100.00
45357;BME280;31092;51.924;21.448;2022-09-09T05:23:39;100040.88;;;11.82;100.00
45357;BME280;31092;51.924;21.448;2022-09-09T05:26:05;100010.16;;;11.60;100.00
45357;BME280;31092;51.924;21.448;2022-09-09T05:28:34;100029.13;;;11.74;100.00
45357;BME280;31092;51.924;21.448;2022-09-09T05:31:03;100032.47;;;11.77;100.00
45357;BME280;31092;51.924;21.448;2022-09-09T05:33:34;99951.19;;;11.25;100.00
45357;BME280;31092;51.924;21.448;2022-09-09T05:36:06;100030.19;;;11.65;100.00
45357;BME280;31092;51.924;21.448;2022-09-09T05:38:34;100042.91;;;11.80;100.00
45357;BME280;31092;51.924;21.448;2022-09-09T05:41:00;100035.53;;;11.73;100.00
45357;BME280;31092;51.924;21.448;2022-09-09T05:43:26;100040.22;;;11.80;100.00
45357;BME280;31092;51.924;21.448;2022-09-09T05:48:30;100022.56;;;11.69;100.00
45357;BME280;31092;51.924;21.448;2022-09-09T05:50:56;99970.84;;;11.34;100.00
45357;BME280;31092;51.924;21.448;2022-09-09T05:53:22;100049.69;;;11.75;100.00
45357;BME280;31092;51.924;21.448;2022-09-09T05:55:47;100051.34;;;11.77;100.00
45357;BME280;31092;51.924;21.448;2022-09-09T05:58:13;100059.94;;;11.80;100.00
45357;BME280;31092;51.924;21.448;2022-09-09T06:00:40;99990.69;;;11.41;100.00
45357;BME280;31092;51.924;21.448;2022-09-09T06:03:06;100056.75;;;11.77;100.00
45357;BME280;31092;51.924;21.448;2022-09-09T06:05:31;100046.16;;;11.75;100.00
45357;BME280;31092;51.924;21.448;2022-09-09T06:07:57;99988.84;;;11.42;100.00
45357;BME280;31092;51.924;21.448;2022-09-09T06:10:23;100055.72;;;11.86;100.00
45357;BME280;31092;51.924;21.448;2022-09-09T06:12:48;99985.31;;;11.41;100.00
45357;BME280;31092;51.924;21.448;2022-09-09T06:15:17;100066.00;;;11.82;100.00
45357;BME280;31092;51.924;21.448;2022-09-09T06:17:42;100059.25;;;11.86;100.00
45357;BME280;31092;51.924;21.448;2022-09-09T06:20:10;100057.88;;;11.90;100.00
45357;BME280;31092;51.924;21.448;2022-09-09T06:22:39;100069.84;;;11.96;100.00
45357;BME280;31092;51.924;21.448;2022-09-09T06:25:06;99975.34;;;11.42;100.00
45357;BME280;31092;51.924;21.448;2022-09-09T06:27:33;100084.31;;;11.95;100.00
45357;BME280;31092;51.924;21.448;2022-09-09T06:29:58;100076.41;;;11.93;100.00
45357;BME280;31092;51.924;21.448;2022-09-09T06:32:24;100001.28;;;11.51;100.00
45357;BME280;31092;51.924;21.448;2022-09-09T06:34:50;99989.31;;;11.45;100.00
45357;BME280;31092;51.924;21.448;2022-09-09T06:37:15;100080.09;;;12.01;100.00
45357;BME280;31092;51.924;21.448;2022-09-09T06:39:41;100091.66;;;12.09;100.00
45357;BME280;31092;51.924;21.448;2022-09-09T06:42:07;100082.97;;;11.99;100.00
45357;BME280;31092;51.924;21.448;2022-09-09T06:44:33;99999.06;;;11.55;100.00
45357;BME280;31092;51.924;21.448;2022-09-09T06:46:59;100067.28;;;11.94;100.00
45357;BME280;31092;51.924;21.448;2022-09-09T06:49:25;100009.63;;;11.64;100.00
45357;BME280;31092;51.924;21.448;2022-09-09T06:51:50;100090.59;;;12.18;100.00
45357;BME280;31092;51.924;21.448;2022-09-09T06:54:17;100065.34;;;12.11;100.00
45357;BME280;31092;51.924;21.448;2022-09-09T06:56:43;100016.41;;;11.83;100.00
45357;BME280;31092;51.924;21.448;2022-09-09T06:59:11;100038.63;;;11.93;100.00
45357;BME280;31092;51.924;21.448;2022-09-09T07:01:42;100086.16;;;12.26;100.00
45357;BME280;31092;51.924;21.448;2022-09-09T07:04:12;100090.03;;;12.23;100.00
45357;BME280;31092;51.924;21.448;2022-09-09T07:06:43;100071.41;;;12.13;100.00
45357;BME280;31092;51.924;21.448;2022-09-09T07:09:11;100101.81;;;12.30;100.00
45357;BME280;31092;51.924;21.448;2022-09-09T07:11:39;100080.97;;;12.16;100.00
45357;BME280;31092;51.924;21.448;2022-09-09T07:14:06;100027.41;;;11.82;100.00
45357;BME280;31092;51.924;21.448;2022-09-09T07:16:33;100096.94;;;12.26;100.00
45357;BME280;31092;51.924;21.448;2022-09-09T07:19:03;100112.59;;;12.30;100.00
45357;BME280;31092;51.924;21.448;2022-09-09T07:21:30;100036.00;;;11.85;100.00
45357;BME280;31092;51.924;21.448;2022-09-09T07:23:56;100100.81;;;12.31;100.00
45357;BME280;31092;51.924;21.448;2022-09-09T07:26:24;100036.78;;;11.94;100.00
45357;BME280;31092;51.924;21.448;2022-09-09T07:28:50;100123.78;;;12.50;100.00
45357;BME280;31092;51.924;21.448;2022-09-09T07:31:22;100118.25;;;12.43;100.00
45357;BME280;31092;51.924;21.448;2022-09-09T07:33:48;100093.56;;;12.23;100.00
45357;BME280;31092;51.924;21.448;2022-09-09T07:36:15;100064.19;;;12.06;100.00
45357;BME280;31092;51.924;21.448;2022-09-09T07:38:46;100120.34;;;12.33;100.00
45357;BME280;31092;51.924;21.448;2022-09-09T07:41:15;100056.69;;;11.93;100.00
45357;BME280;31092;51.924;21.448;2022-09-09T07:43:43;100127.97;;;12.30;100.00
45357;BME280;31092;51.924;21.448;2022-09-09T07:46:11;100130.44;;;12.39;100.00
45357;BME280;31092;51.924;21.448;2022-09-09T07:48:38;100139.84;;;12.43;100.00
45357;BME280;31092;51.924;21.448;2022-09-09T07:51:13;100130.59;;;12.38;100.00
45357;BME280;31092;51.924;21.448;2022-09-09T07:53:40;100077.88;;;12.04;100.00
45357;BME280;31092;51.924;21.448;2022-09-09T07:56:11;100130.59;;;12.38;100.00
45357;BME280;31092;51.924;21.448;2022-09-09T07:58:39;100071.63;;;12.04;100.00
45357;BME280;31092;51.924;21.448;2022-09-09T08:01:09;100058.78;;;12.06;100.00
45357;BME280;31092;51.924;21.448;2022-09-09T08:03:35;100137.31;;;12.65;100.00
45357;BME280;31092;51.924;21.448;2022-09-09T08:06:03;100134.34;;;12.60;100.00
45357;BME280;31092;51.924;21.448;2022-09-09T08:08:28;100079.00;;;12.33;100.00
45357;BME280;31092;51.924;21.448;2022-09-09T08:11:02;100113.25;;;12.55;100.00
45357;BME280;31092;51.924;21.448;2022-09-09T08:13:28;100135.81;;;12.62;100.00
45357;BME280;31092;51.924;21.448;2022-09-09T08:15:53;100153.38;;;12.66;100.00
45357;BME280;31092;51.924;21.448;2022-09-09T08:18:19;100128.47;;;12.56;100.00
45357;BME280;31092;51.924;21.448;2022-09-09T08:20:44;100112.97;;;12.50;100.00
45357;BME280;31092;51.924;21.448;2022-09-09T08:23:10;100145.75;;;12.70;100.00
45357;BME280;31092;51.924;21.448;2022-09-09T08:25:35;100162.03;;;12.77;100.00
45357;BME280;31092;51.924;21.448;2022-09-09T08:28:12;100152.75;;;12.79;100.00
45357;BME280;31092;51.924;21.448;2022-09-09T08:31:04;100151.91;;;12.79;100.00
45357;BME280;31092;51.924;21.448;2022-09-09T08:33:34;100061.00;;;12.25;100.00
45357;BME280;31092;51.924;21.448;2022-09-09T08:36:02;100169.06;;;12.86;100.00
45357;BME280;31092;51.924;21.448;2022-09-09T08:38:35;100154.88;;;12.84;100.00
45357;BME280;31092;51.924;21.448;2022-09-09T08:41:52;100168.41;;;12.84;100.00
45357;BME280;31092;51.924;21.448;2022-09-09T08:50:54;100181.28;;;12.82;100.00
45357;BME280;31092;51.924;21.448;2022-09-09T08:53:44;100091.75;;;12.24;100.00
45357;BME280;31092;51.924;21.448;2022-09-09T08:56:14;100185.00;;;12.81;100.00
45357;BME280;31092;51.924;21.448;2022-09-09T08:58:49;100103.13;;;12.34;100.00
45357;BME280;31092;51.924;21.448;2022-09-09T09:08:12;100189.97;;;12.92;100.00
45357;BME280;31092;51.924;21.448;2022-09-09T09:10:51;100192.59;;;13.00;100.00
45357;BME280;31092;51.924;21.448;2022-09-09T09:16:39;100189.53;;;13.03;100.00
45357;BME280;31092;51.924;21.448;2022-09-09T09:19:13;100116.44;;;12.59;100.00
45357;BME280;31092;51.924;21.448;2022-09-09T09:26:45;100195.44;;;13.22;100.00
45357;BME280;31092;51.924;21.448;2022-09-09T09:29:24;100186.81;;;13.26;100.00
45357;BME280;31092;51.924;21.448;2022-09-09T09:34:55;100192.41;;;13.25;100.00
45357;BME280;31092;51.924;21.448;2022-09-09T09:37:35;100209.38;;;13.33;100.00
45357;BME280;31092;51.924;21.448;2022-09-09T09:40:33;100203.25;;;13.39;100.00
45357;BME280;31092;51.924;21.448;2022-09-09T09:43:37;100209.84;;;13.37;100.00
45357;BME280;31092;51.924;21.448;2022-09-09T09:46:28;100191.38;;;13.26;100.00
45357;BME280;31092;51.924;21.448;2022-09-09T09:49:00;100203.13;;;13.33;100.00
45357;BME280;31092;51.924;21.448;2022-09-09T09:51:27;100205.19;;;13.31;100.00
45357;BME280;31092;51.924;21.448;2022-09-09T09:54:14;100205.66;;;13.34;100.00
45357;BME280;31092;51.924;21.448;2022-09-09T09:57:14;100202.03;;;13.42;100.00
45357;BME280;31092;51.924;21.448;2022-09-09T09:59:41;100205.56;;;13.43;100.00
45357;BME280;31092;51.924;21.448;2022-09-09T10:02:22;100210.25;;;13.49;100.00
45357;BME280;31092;51.924;21.448;2022-09-09T10:05:18;100208.56;;;13.48;100.00
45357;BME280;31092;51.924;21.448;2022-09-09T10:08:10;100191.69;;;13.46;100.00
45357;BME280;31092;51.924;21.448;2022-09-09T10:21:03;100224.81;;;13.62;100.00
45357;BME280;31092;51.924;21.448;2022-09-09T10:36:23;100226.88;;;13.60;100.00
45357;BME280;31092;51.924;21.448;2022-09-09T11:12:35;100254.75;;;13.61;100.00
45357;BME280;31092;51.924;21.448;2022-09-09T11:15:35;100267.38;;;13.69;100.00
45357;BME280;31092;51.924;21.448;2022-09-09T11:18:04;100270.53;;;13.72;100.00
45357;BME280;31092;51.924;21.448;2022-09-09T11:20:33;100231.50;;;13.52;100.00
45357;BME280;31092;51.924;21.448;2022-09-09T11:25:48;100273.81;;;13.82;100.00
45357;BME280;31092;51.924;21.448;2022-09-09T11:40:42;100262.41;;;13.72;100.00
45357;BME280;31092;51.924;21.448;2022-09-09T11:43:16;100234.22;;;13.52;100.00
45357;BME280;31092;51.924;21.448;2022-09-09T11:45:51;100271.78;;;13.70;100.00
45357;BME280;31092;51.924;21.448;2022-09-09T11:51:01;100306.03;;;13.92;100.00
45357;BME280;31092;51.924;21.448;2022-09-09T11:53:29;100229.19;;;13.49;100.00
45357;BME280;31092;51.924;21.448;2022-09-09T11:59:31;100257.00;;;13.72;100.00
45357;BME280;31092;51.924;21.448;2022-09-09T12:02:17;100195.88;;;13.48;100.00
45357;BME280;31092;51.924;21.448;2022-09-09T12:04:57;100267.00;;;13.86;100.00
45357;BME280;31092;51.924;21.448;2022-09-09T12:07:31;100202.19;;;13.40;100.00
45357;BME280;31092;51.924;21.448;2022-09-09T12:10:22;100293.81;;;13.81;100.00
45357;BME280;31092;51.924;21.448;2022-09-09T12:12:45;100218.44;;;13.40;100.00
45357;BME280;31092;51.924;21.448;2022-09-09T12:24:43;100300.06;;;13.82;100.00
45357;BME280;31092;51.924;21.448;2022-09-09T12:30:19;100288.50;;;13.73;100.00
45357;BME280;31092;51.924;21.448;2022-09-09T12:39:42;100306.41;;;13.74;100.00
45357;BME280;31092;51.924;21.448;2022-09-09T12:42:21;100297.91;;;13.62;100.00
45357;BME280;31092;51.924;21.448;2022-09-09T12:45:00;100306.75;;;13.71;100.00
45357;BME280;31092;51.924;21.448;2022-09-09T12:50:17;100214.88;;;13.25;100.00
45357;BME280;31092;51.924;21.448;2022-09-09T12:52:44;100277.56;;;13.67;100.00
45357;BME280;31092;51.924;21.448;2022-09-09T12:58:20;100285.94;;;14.01;100.00
45357;BME280;31092;51.924;21.448;2022-09-09T13:00:53;100191.78;;;13.67;100.00
45357;BME280;31092;51.924;21.448;2022-09-09T13:03:22;100215.75;;;13.85;100.00
45357;BME280;31092;51.924;21.448;2022-09-09T13:05:49;100286.41;;;14.34;100.00
45357;BME280;31092;51.924;21.448;2022-09-09T13:08:16;100236.00;;;14.04;100.00
45357;BME280;31092;51.924;21.448;2022-09-09T13:11:01;100248.41;;;14.13;100.00
45357;BME280;31092;51.924;21.448;2022-09-09T13:13:40;100229.38;;;13.92;100.00
45357;BME280;31092;51.924;21.448;2022-09-09T13:16:22;100234.22;;;13.96;100.00
45357;BME280;31092;51.924;21.448;2022-09-09T13:18:49;100279.88;;;14.14;100.00
45357;BME280;31092;51.924;21.448;2022-09-09T13:21:16;100220.16;;;13.71;100.00
45357;BME280;31092;51.924;21.448;2022-09-09T13:23:48;100215.09;;;13.68;100.00
45357;BME280;31092;51.924;21.448;2022-09-09T13:26:26;100248.34;;;13.92;100.00
45357;BME280;31092;51.924;21.448;2022-09-09T13:28:55;100246.09;;;13.95;100.00
45357;BME280;31092;51.924;21.448;2022-09-09T13:31:36;100255.69;;;13.98;100.00
45357;BME280;31092;51.924;21.448;2022-09-09T13:34:22;100267.66;;;14.03;100.00
45357;BME280;31092;51.924;21.448;2022-09-09T13:36:52;100282.13;;;14.10;100.00
45357;BME280;31092;51.924;21.448;2022-09-09T13:39:19;100282.69;;;14.06;100.00
45357;BME280;31092;51.924;21.448;2022-09-09T13:41:47;100280.94;;;13.98;100.00
45357;BME280;31092;51.924;21.448;2022-09-09T13:44:25;100209.84;;;13.52;100.00
45357;BME280;31092;51.924;21.448;2022-09-09T13:49:29;100277.94;;;13.93;100.00
45357;BME280;31092;51.924;21.448;2022-09-09T13:52:24;100289.22;;;13.97;100.00
45357;BME280;31092;51.924;21.448;2022-09-09T13:55:00;100227.34;;;13.64;100.00
45357;BME280;31092;51.924;21.448;2022-09-09T13:57:25;100286.97;;;14.00;100.00
45357;BME280;31092;51.924;21.448;2022-09-09T13:59:52;100275.06;;;13.95;100.00
45357;BME280;31092;51.924;21.448;2022-09-09T14:02:22;100285.13;;;14.01;100.00
45357;BME280;31092;51.924;21.448;2022-09-09T14:04:49;100212.03;;;13.56;100.00
45357;BME280;31092;51.924;21.448;2022-09-09T14:07:17;100202.31;;;13.47;100.00
45357;BME280;31092;51.924;21.448;2022-09-09T14:09:43;100292.13;;;13.95;100.00
45357;BME280;31092;51.924;21.448;2022-09-09T14:12:13;100226.97;;;13.52;100.00
45357;BME280;31092;51.924;21.448;2022-09-09T14:14:41;100218.44;;;13.40;100.00
45357;BME280;31092;51.924;21.448;2022-09-09T14:17:10;100288.84;;;13.85;100.00
45357;BME280;31092;51.924;21.448;2022-09-09T14:19:36;100217.97;;;13.52;100.00
45357;BME280;31092;51.924;21.448;2022-09-09T14:22:02;100215.09;;;13.53;100.00
45357;BME280;31092;51.924;21.448;2022-09-09T14:24:28;100226.41;;;13.57;100.00
45357;BME280;31092;51.924;21.448;2022-09-09T14:26:54;100283.72;;;13.90;100.00
45357;BME280;31092;51.924;21.448;2022-09-09T14:29:20;100292.13;;;13.95;100.00
45357;BME280;31092;51.924;21.448;2022-09-09T14:31:46;100295.78;;;13.87;100.00
45357;BME280;31092;51.924;21.448;2022-09-09T14:34:12;100205.75;;;13.41;100.00
45357;BME280;31092;51.924;21.448;2022-09-09T14:36:38;100293.44;;;13.99;100.00
45357;BME280;31092;51.924;21.448;2022-09-09T14:39:04;100219.00;;;13.51;100.00
45357;BME280;31092;51.924;21.448;2022-09-09T14:41:30;100226.41;;;13.57;100.00
45357;BME280;31092;51.924;21.448;2022-09-09T14:43:56;100268.50;;;13.89;100.00
45357;BME280;31092;51.924;21.448;2022-09-09T14:46:22;100220.34;;;13.70;100.00
45357;BME280;31092;51.924;21.448;2022-09-09T14:48:48;100296.50;;;14.26;100.00
45357;BME280;31092;51.924;21.448;2022-09-09T14:51:17;100306.38;;;14.33;100.00
45357;BME280;31092;51.924;21.448;2022-09-09T14:53:45;100281.75;;;14.28;100.00
45357;BME280;31092;51.924;21.448;2022-09-09T14:56:16;100296.03;;;14.52;100.00
45357;BME280;31092;51.924;21.448;2022-09-09T14:58:43;100204.59;;;14.24;100.00
45357;BME280;31092;51.924;21.448;2022-09-09T15:01:11;100204.00;;;14.29;100.00
45357;BME280;31092;51.924;21.448;2022-09-09T15:03:38;100282.31;;;14.75;100.00
45357;BME280;31092;51.924;21.448;2022-09-09T15:06:07;100271.97;;;14.64;100.00
45357;BME280;31092;51.924;21.448;2022-09-09T15:08:35;100285.44;;;14.57;100.00
45357;BME280;31092;51.924;21.448;2022-09-09T15:11:02;100223.22;;;14.12;100.00
45357;BME280;31092;51.924;21.448;2022-09-09T15:13:27;100220.03;;;14.09;100.00
45357;BME280;31092;51.924;21.448;2022-09-09T15:15:53;100233.94;;;14.06;100.00
45357;BME280;31092;51.924;21.448;2022-09-09T15:18:20;100249.53;;;14.04;100.00
45357;BME280;31092;51.924;21.448;2022-09-09T15:20:46;100275.41;;;14.21;100.00
45357;BME280;31092;51.924;21.448;2022-09-09T15:23:13;100279.97;;;14.21;100.00
45357;BME280;31092;51.924;21.448;2022-09-09T15:25:50;100231.34;;;13.83;100.00
45357;BME280;31092;51.924;21.448;2022-09-09T15:28:15;100248.41;;;13.83;100.00
45357;BME280;31092;51.924;21.448;2022-09-09T15:30:41;100230.03;;;13.79;100.00
45357;BME280;31092;51.924;21.448;2022-09-09T15:33:10;100290.34;;;14.02;100.00
45357;BME280;31092;51.924;21.448;2022-09-09T15:35:36;100241.22;;;13.76;100.00